sensor_id;sensor_type;location;lat;lon;timestamp;pressure;altitude;pressure_sealevel;temperature;humidity
45323;BME280;31382;50.200;8.674;2023-01-25T00:01:16;102281.38;;;5.50;69.17
45323;BME280;31382;50.200;8.674;2023-01-25T00:06:18;102267.84;;;5.53;69.18
45323;BME280;31382;50.200;8.674;2023-01-25T00:11:19;102273.19;;;5.53;69.47
45323;BME280;31382;50.200;8.674;2023-01-25T00:16:22;102262.69;;;5.50;68.91
45323;BME280;31382;50.200;8.674;2023-01-25T00:21:25;102268.25;;;5.47;69.65
45323;BME280;31382;50.200;8.674;2023-01-25T00:26:29;102259.94;;;5.38;69.07
45323;BME280;31382;50.200;8.674;2023-01-25T00:31:35;102250.72;;;5.43;69.73
45323;BME280;31382;50.200;8.674;2023-01-25T00:41:39;102243.00;;;5.53;69.17
45323;BME280;31382;50.200;8.674;2023-01-25T00:46:40;102248.13;;;5.56;69.41
45323;BME280;31382;50.200;8.674;2023-01-25T00:51:42;102241.84;;;5.57;68.90
45323;BME280;31382;50.200;8.674;2023-01-25T00:56:43;102239.19;;;5.57;69.21
45323;BME280;31382;50.200;8.674;2023-01-25T01:01:45;102241.84;;;5.43;69.86
45323;BME280;31382;50.200;8.674;2023-01-25T01:06:47;102249.66;;;5.46;69.16
45323;BME280;31382;50.200;8.674;2023-01-25T01:11:48;102248.81;;;5.45;69.06
45323;BME280;31382;50.200;8.674;2023-01-25T01:16:50;102258.34;;;5.49;69.21
45323;BME280;31382;50.200;8.674;2023-01-25T01:21:51;102253.19;;;5.46;69.38
45323;BME280;31382;50.200;8.674;2023-01-25T01:26:53;102248.22;;;5.40;69.09
45323;BME280;31382;50.200;8.674;2023-01-25T01:31:54;102242.03;;;5.40;69.57
45323;BME280;31382;50.200;8.674;2023-01-25T01:36:56;102235.09;;;5.51;68.57
45323;BME280;31382;50.200;8.674;2023-01-25T01:41:57;102235.75;;;5.55;68.72
45323;BME280;31382;50.200;8.674;2023-01-25T01:46:59;102235.63;;;5.56;68.88
45323;BME280;31382;50.200;8.674;2023-01-25T01:52:12;102231.06;;;5.59;68.96
45323;BME280;31382;50.200;8.674;2023-01-25T01:57:22;102224.13;;;5.56;68.91
45323;BME280;31382;50.200;8.674;2023-01-25T02:02:25;102221.53;;;5.54;69.23
45323;BME280;31382;50.200;8.674;2023-01-25T02:07:35;102225.66;;;5.46;69.11
45323;BME280;31382;50.200;8.674;2023-01-25T02:12:37;102228.88;;;5.36;69.79
45323;BME280;31382;50.200;8.674;2023-01-25T02:17:40;102221.94;;;5.34;69.70
45323;BME280;31382;50.200;8.674;2023-01-25T02:28:15;102217.25;;;5.23;69.92
45323;BME280;31382;50.200;8.674;2023-01-25T02:33:22;102211.47;;;5.16;69.79
45323;BME280;31382;50.200;8.674;2023-01-25T02:38:24;102214.72;;;5.22;69.35
45323;BME280;31382;50.200;8.674;2023-01-25T02:43:30;102209.09;;;5.26;69.40
45323;BME280;31382;50.200;8.674;2023-01-25T02:48:32;102209.94;;;5.27;69.38
45323;BME280;31382;50.200;8.674;2023-01-25T02:53:34;102205.06;;;5.19;69.63
45323;BME280;31382;50.200;8.674;2023-01-25T02:58:35;102213.06;;;5.19;69.36
45323;BME280;31382;50.200;8.674;2023-01-25T03:03:37;102204.69;;;5.11;69.93
45323;BME280;31382;50.200;8.674;2023-01-25T03:08:38;102203.25;;;5.05;69.75
45323;BME280;31382;50.200;8.674;2023-01-25T03:13:39;102199.19;;;5.14;69.71
45323;BME280;31382;50.200;8.674;2023-01-25T03:18:41;102198.53;;;5.10;70.01
45323;BME280;31382;50.200;8.674;2023-01-25T03:23:44;102195.69;;;5.13;69.49
45323;BME280;31382;50.200;8.674;2023-01-25T03:28:45;102173.69;;;5.10;69.94
45323;BME280;31382;50.200;8.674;2023-01-25T03:33:47;102182.44;;;5.12;70.10
45323;BME280;31382;50.200;8.674;2023-01-25T03:38:49;102175.97;;;5.02;69.68
45323;BME280;31382;50.200;8.674;2023-01-25T03:43:51;102170.13;;;5.09;70.13
45323;BME280;31382;50.200;8.674;2023-01-25T03:48:52;102173.09;;;5.05;69.84
45323;BME280;31382;50.200;8.674;2023-01-25T03:53:54;102169.28;;;4.94;70.54
45323;BME280;31382;50.200;8.674;2023-01-25T03:58:55;102172.25;;;4.90;70.22
45323;BME280;31382;50.200;8.674;2023-01-25T04:03:56;102171.84;;;4.82;70.25
45323;BME280;31382;50.200;8.674;2023-01-25T04:08:58;102164.34;;;4.88;70.49
45323;BME280;31382;50.200;8.674;2023-01-25T04:13:59;102171.09;;;4.94;70.17
45323;BME280;31382;50.200;8.674;2023-01-25T04:19:00;102163.50;;;4.88;69.92
45323;BME280;31382;50.200;8.674;2023-01-25T04:24:02;102157.88;;;4.92;69.97
45323;BME280;31382;50.200;8.674;2023-01-25T04:29:03;102147.00;;;4.95;69.94
45323;BME280;31382;50.200;8.674;2023-01-25T04:34:05;102150.06;;;4.89;70.43
45323;BME280;31382;50.200;8.674;2023-01-25T04:39:06;102138.38;;;4.92;70.33
45323;BME280;31382;50.200;8.674;2023-01-25T04:44:08;102132.16;;;4.91;70.09
45323;BME280;31382;50.200;8.674;2023-01-25T04:49:09;102125.31;;;4.87;70.37
45323;BME280;31382;50.200;8.674;2023-01-25T04:54:10;102114.38;;;4.92;70.21
45323;BME280;31382;50.200;8.674;2023-01-25T04:59:12;102113.91;;;5.00;70.32
45323;BME280;31382;50.200;8.674;2023-01-25T05:04:13;102112.09;;;5.00;70.46
45323;BME280;31382;50.200;8.674;2023-01-25T05:09:15;102102.19;;;5.02;70.27
45323;BME280;31382;50.200;8.674;2023-01-25T05:14:17;102107.91;;;4.96;70.36
45323;BME280;31382;50.200;8.674;2023-01-25T05:19:18;102102.28;;;5.01;69.86
45323;BME280;31382;50.200;8.674;2023-01-25T05:24:20;102101.63;;;4.97;70.23
45323;BME280;31382;50.200;8.674;2023-01-25T05:29:21;102097.91;;;5.00;69.87
45323;BME280;31382;50.200;8.674;2023-01-25T05:34:22;102103.63;;;5.08;69.62
45323;BME280;31382;50.200;8.674;2023-01-25T05:39:24;102102.88;;;5.06;70.22
45323;BME280;31382;50.200;8.674;2023-01-25T05:44:26;102092.38;;;5.03;69.81
45323;BME280;31382;50.200;8.674;2023-01-25T05:49:27;102092.75;;;5.11;69.79
45323;BME280;31382;50.200;8.674;2023-01-25T05:54:28;102086.88;;;5.06;69.97
45323;BME280;31382;50.200;8.674;2023-01-25T05:59:30;102080.78;;;5.04;70.15
45323;BME280;31382;50.200;8.674;2023-01-25T06:04:31;102085.72;;;5.10;69.69
45323;BME280;31382;50.200;8.674;2023-01-25T06:09:33;102091.59;;;5.15;70.02
45323;BME280;31382;50.200;8.674;2023-01-25T06:14:34;102089.53;;;5.06;69.93
45323;BME280;31382;50.200;8.674;2023-01-25T06:19:36;102090.56;;;5.03;69.86
45323;BME280;31382;50.200;8.674;2023-01-25T06:24:37;102077.72;;;4.95;69.85
45323;BME280;31382;50.200;8.674;2023-01-25T06:29:38;102090.41;;;4.92;70.09
45323;BME280;31382;50.200;8.674;2023-01-25T06:34:40;102088.38;;;4.95;70.14
45323;BME280;31382;50.200;8.674;2023-01-25T06:39:41;102091.44;;;4.89;69.75
45323;BME280;31382;50.200;8.674;2023-01-25T06:44:43;102092.78;;;4.82;70.35
45323;BME280;31382;50.200;8.674;2023-01-25T06:49:44;102089.16;;;4.83;70.18
45323;BME280;31382;50.200;8.674;2023-01-25T06:54:45;102088.09;;;4.71;70.26
45323;BME280;31382;50.200;8.674;2023-01-25T06:59:47;102087.25;;;4.71;70.72
45323;BME280;31382;50.200;8.674;2023-01-25T07:04:48;102080.03;;;4.73;70.27
45323;BME280;31382;50.200;8.674;2023-01-25T07:09:49;102092.13;;;4.64;70.42
45323;BME280;31382;50.200;8.674;2023-01-25T07:14:51;102085.53;;;4.70;69.94
45323;BME280;31382;50.200;8.674;2023-01-25T07:19:52;102087.34;;;4.84;70.11
45323;BME280;31382;50.200;8.674;2023-01-25T07:24:53;102086.03;;;4.76;70.59
45323;BME280;31382;50.200;8.674;2023-01-25T07:29:57;102084.69;;;4.84;70.31
45323;BME280;31382;50.200;8.674;2023-01-25T07:34:59;102083.44;;;4.89;70.05
45323;BME280;31382;50.200;8.674;2023-01-25T07:40:00;102078.72;;;4.80;70.48
45323;BME280;31382;50.200;8.674;2023-01-25T07:45:02;102069.34;;;4.87;70.39
45323;BME280;31382;50.200;8.674;2023-01-25T07:50:03;102076.59;;;4.85;70.43
45323;BME280;31382;50.200;8.674;2023-01-25T07:55:05;102073.94;;;4.85;69.97
45323;BME280;31382;50.200;8.674;2023-01-25T08:00:08;102071.09;;;4.88;70.04
45323;BME280;31382;50.200;8.674;2023-01-25T08:05:10;102078.59;;;4.82;70.61
45323;BME280;31382;50.200;8.674;2023-01-25T08:10:11;102083.56;;;4.88;69.85
45323;BME280;31382;50.200;8.674;2023-01-25T08:15:13;102074.69;;;4.87;70.12
45323;BME280;31382;50.200;8.674;2023-01-25T08:20:14;102076.41;;;4.88;70.18
45323;BME280;31382;50.200;8.674;2023-01-25T08:25:16;102076.81;;;4.82;70.60
45323;BME280;31382;50.200;8.674;2023-01-25T08:30:18;102084.88;;;4.81;70.18
45323;BME280;31382;50.200;8.674;2023-01-25T08:35:19;102076.91;;;4.66;70.65
45323;BME280;31382;50.200;8.674;2023-01-25T08:40:23;102072.50;;;4.65;70.66
45323;BME280;31382;50.200;8.674;2023-01-25T08:45:24;102069.66;;;4.68;70.49
45323;BME280;31382;50.200;8.674;2023-01-25T08:50:26;102060.53;;;4.72;70.88
45323;BME280;31382;50.200;8.674;2023-01-25T08:55:27;102060.81;;;4.68;70.59
45323;BME280;31382;50.200;8.674;2023-01-25T09:00:29;102051.41;;;4.76;70.76
45323;BME280;31382;50.200;8.674;2023-01-25T09:05:32;102052.34;;;4.75;70.43
45323;BME280;31382;50.200;8.674;2023-01-25T09:10:35;102047.75;;;4.77;70.29
45323;BME280;31382;50.200;8.674;2023-01-25T09:15:36;102050.34;;;4.79;70.21
45323;BME280;31382;50.200;8.674;2023-01-25T09:20:38;102046.53;;;4.83;70.14
45323;BME280;31382;50.200;8.674;2023-01-25T09:25:40;102034.72;;;4.87;70.53
45323;BME280;31382;50.200;8.674;2023-01-25T09:30:41;102031.31;;;4.71;70.90
45323;BME280;31382;50.200;8.674;2023-01-25T09:35:50;102040.09;;;4.59;70.75
45323;BME280;31382;50.200;8.674;2023-01-25T09:41:21;102042.53;;;4.62;70.77
45323;BME280;31382;50.200;8.674;2023-01-25T09:46:38;102038.94;;;4.63;70.54
45323;BME280;31382;50.200;8.674;2023-01-25T09:52:07;102035.53;;;4.61;70.65
45323;BME280;31382;50.200;8.674;2023-01-25T09:57:35;102036.56;;;4.72;70.69
45323;BME280;31382;50.200;8.674;2023-01-25T10:08:04;102031.59;;;4.81;71.05
45323;BME280;31382;50.200;8.674;2023-01-25T10:13:10;102017.03;;;4.86;70.60
45323;BME280;31382;50.200;8.674;2023-01-25T10:18:54;101998.47;;;4.85;70.44
45323;BME280;31382;50.200;8.674;2023-01-25T10:24:09;102005.13;;;4.92;70.61
45323;BME280;31382;50.200;8.674;2023-01-25T10:29:21;101997.72;;;4.83;70.48
45323;BME280;31382;50.200;8.674;2023-01-25T10:34:32;101993.34;;;4.82;70.89
45323;BME280;31382;50.200;8.674;2023-01-25T10:39:56;101989.28;;;4.76;70.94
45323;BME280;31382;50.200;8.674;2023-01-25T10:44:59;101975.84;;;4.77;70.20
45323;BME280;31382;50.200;8.674;2023-01-25T10:50:01;101959.75;;;4.79;70.59
45323;BME280;31382;50.200;8.674;2023-01-25T10:55:19;101955.50;;;4.76;70.68
45323;BME280;31382;50.200;8.674;2023-01-25T11:00:36;101949.06;;;4.93;70.42
45323;BME280;31382;50.200;8.674;2023-01-25T11:05:39;101949.72;;;4.97;70.16
45323;BME280;31382;50.200;8.674;2023-01-25T11:10:44;101933.81;;;4.95;70.27
45323;BME280;31382;50.200;8.674;2023-01-25T11:16:08;101933.38;;;4.89;70.37
45323;BME280;31382;50.200;8.674;2023-01-25T11:21:15;101925.53;;;4.73;71.11
45323;BME280;31382;50.200;8.674;2023-01-25T11:26:18;101923.22;;;4.81;70.72
45323;BME280;31382;50.200;8.674;2023-01-25T11:31:21;101919.50;;;4.84;69.94
45323;BME280;31382;50.200;8.674;2023-01-25T11:42:14;101889.66;;;4.37;71.52
45323;BME280;31382;50.200;8.674;2023-01-25T11:47:38;101876.91;;;4.28;71.47
45323;BME280;31382;50.200;8.674;2023-01-25T12:03:42;101842.53;;;4.25;71.50
45323;BME280;31382;50.200;8.674;2023-01-25T12:19:55;101813.06;;;4.55;70.73
45323;BME280;31382;50.200;8.674;2023-01-25T12:25:12;101808.00;;;4.65;70.72
45323;BME280;31382;50.200;8.674;2023-01-25T12:30:51;101794.34;;;4.56;70.89
45323;BME280;31382;50.200;8.674;2023-01-25T12:41:37;101785.47;;;4.56;71.19
45323;BME280;31382;50.200;8.674;2023-01-25T12:46:46;101776.63;;;4.55;70.64
45323;BME280;31382;50.200;8.674;2023-01-25T12:51:52;101768.97;;;4.51;70.93
45323;BME280;31382;50.200;8.674;2023-01-25T13:02:39;101754.03;;;4.48;70.94
45323;BME280;31382;50.200;8.674;2023-01-25T13:07:58;101742.91;;;4.29;71.19
45323;BME280;31382;50.200;8.674;2023-01-25T13:13:18;101733.69;;;4.47;70.99
45323;BME280;31382;50.200;8.674;2023-01-25T13:23:42;101702.22;;;4.67;70.47
45323;BME280;31382;50.200;8.674;2023-01-25T13:28:48;101687.16;;;4.66;70.74
45323;BME280;31382;50.200;8.674;2023-01-25T13:33:49;101689.41;;;4.72;70.01
45323;BME280;31382;50.200;8.674;2023-01-25T13:38:51;101674.72;;;4.79;70.17
45323;BME280;31382;50.200;8.674;2023-01-25T13:44:11;101676.44;;;4.80;70.39
45323;BME280;31382;50.200;8.674;2023-01-25T13:49:21;101667.94;;;4.88;70.37
45323;BME280;31382;50.200;8.674;2023-01-25T13:54:24;101662.25;;;4.67;70.85
45323;BME280;31382;50.200;8.674;2023-01-25T13:59:26;101657.41;;;4.46;70.97
45323;BME280;31382;50.200;8.674;2023-01-25T14:04:28;101646.91;;;4.57;71.10
45323;BME280;31382;50.200;8.674;2023-01-25T14:09:33;101640.50;;;4.47;71.28
45323;BME280;31382;50.200;8.674;2023-01-25T14:14:34;101636.16;;;4.06;72.04
45323;BME280;31382;50.200;8.674;2023-01-25T14:19:38;101627.31;;;4.06;71.72
45323;BME280;31382;50.200;8.674;2023-01-25T14:24:40;101620.31;;;4.17;71.28
45323;BME280;31382;50.200;8.674;2023-01-25T14:29:47;101622.50;;;3.98;71.69
45323;BME280;31382;50.200;8.674;2023-01-25T14:34:48;101619.69;;;4.14;71.26
45323;BME280;31382;50.200;8.674;2023-01-25T14:39:50;101610.66;;;4.29;70.92
45323;BME280;31382;50.200;8.674;2023-01-25T14:44:52;101593.66;;;4.45;71.16
45323;BME280;31382;50.200;8.674;2023-01-25T14:49:53;101590.75;;;4.48;71.12
45323;BME280;31382;50.200;8.674;2023-01-25T14:54:56;101583.66;;;4.48;70.79
45323;BME280;31382;50.200;8.674;2023-01-25T14:59:59;101585.88;;;4.54;70.79
45323;BME280;31382;50.200;8.674;2023-01-25T15:05:04;101578.50;;;4.58;70.63
45323;BME280;31382;50.200;8.674;2023-01-25T15:10:18;101574.50;;;4.52;70.70
45323;BME280;31382;50.200;8.674;2023-01-25T15:15:21;101562.94;;;4.26;71.23
45323;BME280;31382;50.200;8.674;2023-01-25T15:20:38;101562.91;;;4.01;71.50
45323;BME280;31382;50.200;8.674;2023-01-25T15:26:21;101559.34;;;3.74;72.20
45323;BME280;31382;50.200;8.674;2023-01-25T15:31:27;101557.78;;;3.85;71.77
45323;BME280;31382;50.200;8.674;2023-01-25T15:36:31;101549.25;;;3.80;71.73
45323;BME280;31382;50.200;8.674;2023-01-25T15:41:32;101556.78;;;3.73;72.14
45323;BME280;31382;50.200;8.674;2023-01-25T15:46:35;101550.63;;;3.72;71.92
45323;BME280;31382;50.200;8.674;2023-01-25T15:51:37;101548.13;;;3.56;72.41
45323;BME280;31382;50.200;8.674;2023-01-25T15:56:40;101548.03;;;3.58;72.06
45323;BME280;31382;50.200;8.674;2023-01-25T16:01:42;101549.69;;;3.73;72.05
45323;BME280;31382;50.200;8.674;2023-01-25T16:06:47;101539.16;;;3.85;71.64
45323;BME280;31382;50.200;8.674;2023-01-25T16:11:55;101544.78;;;3.80;72.00
45323;BME280;31382;50.200;8.674;2023-01-25T16:22:33;101546.47;;;3.68;72.17
45323;BME280;31382;50.200;8.674;2023-01-25T16:27:35;101544.22;;;3.62;72.58
45323;BME280;31382;50.200;8.674;2023-01-25T16:32:36;101544.97;;;3.64;72.19
45323;BME280;31382;50.200;8.674;2023-01-25T16:37:38;101541.78;;;3.72;72.42
45323;BME280;31382;50.200;8.674;2023-01-25T16:42:40;101537.16;;;3.61;72.34
45323;BME280;31382;50.200;8.674;2023-01-25T16:47:42;101530.69;;;3.65;72.34
45323;BME280;31382;50.200;8.674;2023-01-25T16:52:44;101529.41;;;3.58;72.27
45323;BME280;31382;50.200;8.674;2023-01-25T16:57:49;101524.03;;;3.72;72.22
45323;BME280;31382;50.200;8.674;2023-01-25T17:02:51;101510.19;;;3.67;72.12
45323;BME280;31382;50.200;8.674;2023-01-25T17:08:00;101505.75;;;3.81;72.17
45323;BME280;31382;50.200;8.674;2023-01-25T17:18:18;101507.69;;;3.91;71.85
45323;BME280;31382;50.200;8.674;2023-01-25T17:23:21;101499.81;;;4.03;71.86
45323;BME280;31382;50.200;8.674;2023-01-25T17:28:23;101492.38;;;4.08;72.00
45323;BME280;31382;50.200;8.674;2023-01-25T17:33:24;101496.63;;;4.10;71.75
45323;BME280;31382;50.200;8.674;2023-01-25T17:38:26;101487.38;;;4.16;72.15
45323;BME280;31382;50.200;8.674;2023-01-25T17:43:28;101475.88;;;4.15;71.82
45323;BME280;31382;50.200;8.674;2023-01-25T17:48:33;101474.91;;;4.16;71.94
45323;BME280;31382;50.200;8.674;2023-01-25T17:53:34;101469.81;;;4.13;71.79
45323;BME280;31382;50.200;8.674;2023-01-25T17:58:42;101463.31;;;4.17;71.98
45323;BME280;31382;50.200;8.674;2023-01-25T18:03:44;101458.41;;;4.24;71.71
45323;BME280;31382;50.200;8.674;2023-01-25T18:08:48;101451.06;;;4.28;71.67
45323;BME280;31382;50.200;8.674;2023-01-25T18:13:53;101448.94;;;4.33;71.55
45323;BME280;31382;50.200;8.674;2023-01-25T18:18:58;101436.06;;;4.27;71.69
45323;BME280;31382;50.200;8.674;2023-01-25T18:24:04;101438.00;;;4.25;71.80
45323;BME280;31382;50.200;8.674;2023-01-25T18:34:13;101429.16;;;4.11;71.94
45323;BME280;31382;50.200;8.674;2023-01-25T18:39:14;101428.00;;;4.15;71.54
45323;BME280;31382;50.200;8.674;2023-01-25T18:44:16;101424.38;;;4.04;72.03
45323;BME280;31382;50.200;8.674;2023-01-25T18:49:17;101410.97;;;4.05;71.78
45323;BME280;31382;50.200;8.674;2023-01-25T18:54:19;101404.47;;;3.96;72.23
45323;BME280;31382;50.200;8.674;2023-01-25T18:59:23;101399.91;;;3.86;71.97
45323;BME280;31382;50.200;8.674;2023-01-25T19:04:24;101407.34;;;3.68;72.55
45323;BME280;31382;50.200;8.674;2023-01-25T19:09:29;101406.50;;;3.80;72.37
45323;BME280;31382;50.200;8.674;2023-01-25T19:14:31;101398.50;;;3.54;72.69
45323;BME280;31382;50.200;8.674;2023-01-25T19:19:32;101390.13;;;3.48;72.70
45323;BME280;31382;50.200;8.674;2023-01-25T19:24:34;101378.81;;;3.57;72.41
45323;BME280;31382;50.200;8.674;2023-01-25T19:29:36;101374.72;;;3.66;72.28
45323;BME280;31382;50.200;8.674;2023-01-25T19:34:37;101376.38;;;3.67;72.25
45323;BME280;31382;50.200;8.674;2023-01-25T19:39:39;101368.97;;;3.72;72.03
45323;BME280;31382;50.200;8.674;2023-01-25T19:44:41;101364.47;;;3.72;72.38
45323;BME280;31382;50.200;8.674;2023-01-25T19:49:45;101362.56;;;3.74;72.36
45323;BME280;31382;50.200;8.674;2023-01-25T19:54:50;101348.44;;;3.74;72.23
45323;BME280;31382;50.200;8.674;2023-01-25T19:59:52;101343.75;;;3.77;72.24
45323;BME280;31382;50.200;8.674;2023-01-25T20:04:54;101337.75;;;3.87;72.31
45323;BME280;31382;50.200;8.674;2023-01-25T20:09:58;101328.50;;;3.92;72.46
45323;BME280;31382;50.200;8.674;2023-01-25T20:15:02;101330.72;;;3.98;72.22
45323;BME280;31382;50.200;8.674;2023-01-25T20:20:04;101324.38;;;4.01;72.09
45323;BME280;31382;50.200;8.674;2023-01-25T20:25:06;101318.16;;;4.01;72.11
45323;BME280;31382;50.200;8.674;2023-01-25T20:30:09;101322.44;;;3.90;72.28
45323;BME280;31382;50.200;8.674;2023-01-25T20:35:11;101313.84;;;3.87;72.71
45323;BME280;31382;50.200;8.674;2023-01-25T20:40:16;101318.84;;;3.78;72.14
45323;BME280;31382;50.200;8.674;2023-01-25T20:45:20;101326.94;;;3.51;72.71
45323;BME280;31382;50.200;8.674;2023-01-25T20:50:22;101321.09;;;3.59;72.44
45323;BME280;31382;50.200;8.674;2023-01-25T20:55:24;101320.34;;;3.57;72.65
45323;BME280;31382;50.200;8.674;2023-01-25T21:00:26;101304.63;;;3.54;73.33
45323;BME280;31382;50.200;8.674;2023-01-25T21:05:36;101298.25;;;3.44;73.40
45323;BME280;31382;50.200;8.674;2023-01-25T21:10:37;101307.69;;;3.35;73.34
45323;BME280;31382;50.200;8.674;2023-01-25T21:15:39;101296.97;;;3.36;73.09
45323;BME280;31382;50.200;8.674;2023-01-25T21:20:40;101296.44;;;3.18;73.60
45323;BME280;31382;50.200;8.674;2023-01-25T21:25:50;101280.19;;;3.36;72.90
45323;BME280;31382;50.200;8.674;2023-01-25T21:30:55;101267.94;;;3.46;72.69
45323;BME280;31382;50.200;8.674;2023-01-25T21:36:14;101271.00;;;3.53;72.55
45323;BME280;31382;50.200;8.674;2023-01-25T21:41:22;101265.81;;;3.38;73.04
45323;BME280;31382;50.200;8.674;2023-01-25T21:46:27;101271.03;;;3.27;73.54
45323;BME280;31382;50.200;8.674;2023-01-25T21:51:28;101270.56;;;3.08;73.52
45323;BME280;31382;50.200;8.674;2023-01-25T21:56:38;101257.19;;;3.09;73.93
45323;BME280;31382;50.200;8.674;2023-01-25T22:01:49;101242.84;;;3.12;73.42
45323;BME280;31382;50.200;8.674;2023-01-25T22:06:55;101231.25;;;3.26;73.06
45323;BME280;31382;50.200;8.674;2023-01-25T22:11:57;101211.28;;;3.33;72.89
45323;BME280;31382;50.200;8.674;2023-01-25T22:16:58;101204.81;;;3.37;72.92
45323;BME280;31382;50.200;8.674;2023-01-25T22:22:00;101204.25;;;3.45;72.85
45323;BME280;31382;50.200;8.674;2023-01-25T22:27:30;101193.63;;;3.57;72.59
45323;BME280;31382;50.200;8.674;2023-01-25T22:32:33;101193.56;;;3.70;72.49
45323;BME280;31382;50.200;8.674;2023-01-25T22:37:35;101189.53;;;3.77;72.89
45323;BME280;31382;50.200;8.674;2023-01-25T22:42:38;101186.13;;;3.75;72.59
45323;BME280;31382;50.200;8.674;2023-01-25T22:47:41;101185.69;;;3.69;72.90
45323;BME280;31382;50.200;8.674;2023-01-25T22:52:43;101190.44;;;3.52;72.84
45323;BME280;31382;50.200;8.674;2023-01-25T22:57:44;101180.09;;;3.61;72.45
45323;BME280;31382;50.200;8.674;2023-01-25T23:02:46;101162.31;;;3.61;72.99
45323;BME280;31382;50.200;8.674;2023-01-25T23:07:48;101163.50;;;3.57;72.53
45323;BME280;31382;50.200;8.674;2023-01-25T23:12:51;101153.38;;;3.38;73.26
45323;BME280;31382;50.200;8.674;2023-01-25T23:17:53;101159.63;;;3.37;73.44
45323;BME280;31382;50.200;8.674;2023-01-25T23:23:13;101149.53;;;3.29;73.23
45323;BME280;31382;50.200;8.674;2023-01-25T23:28:14;101146.88;;;3.29;73.22
45323;BME280;31382;50.200;8.674;2023-01-25T23:33:16;101149.44;;;3.31;73.14
45323;BME280;31382;50.200;8.674;2023-01-25T23:38:18;101134.22;;;3.33;73.42
45323;BME280;31382;50.200;8.674;2023-01-25T23:43:19;101121.69;;;3.35;73.32
45323;BME280;31382;50.200;8.674;2023-01-25T23:48:21;101116.03;;;3.40;72.73
45323;BME280;31382;50.200;8.674;2023-01-25T23:53:24;101108.69;;;3.43;72.94
45323;BME280;31382;50.200;8.674;2023-01-25T23:58:27;101091.91;;;3.43;72.54
